• Join FlightAware (Why Join?)
  • Login
  • US Flag 
04:55AM EDT


 

Airport Tracker/Info


-or-


 

Live Flight TrackerFlight Track Log ✈ GJS3618 ✈ 12-Oct-2013 ✈ KOMA - KDEN

Flight Track Log - Related Links

Times and Time Zones

All times are in EDT time to prevent confusion due to time zone crossing. See the GJS3618 flight status page for this flight to view local times or setup timezone preferences in your user account.

Time Position Orientation Groundspeed Altitude Reporting Facility
EDT Latitude Longitude Course Direction KTS MPH feet Rate Location/Type
09:34AM 41.3144 -95.9006 270° West 161 185 1,500  Level Minneapolis Center
09:35AM 41.3247 -95.8994 North 158 182 2,100 1,800 Climbing Minneapolis Center
09:36AM 41.3611 -95.9253 332° Northwest 159 183 4,000 2,220 Climbing Minneapolis Center
09:37AM 41.3789 -96.0094 286° West 209 241 7,000 2,820 Climbing Minneapolis Center
09:38AM 41.2391 -96.4039 278° West  Level Estimated
09:38AM 41.3814 -96.0917 272° West 233 268 9,800  Level Minneapolis Center
09:39AM 41.2228 -96.5312 270° West  Level Estimated
09:39AM 41.3814 -96.1856 270° West 250 288 11,400  Level Minneapolis Center
09:40AM 41.2063 -96.6584 270° West  Level Estimated
09:40AM 41.3819 -96.2964 270° West 288 331 13,300  Level Minneapolis Center
09:41AM 41.3822 -96.4119 270° West 307 353 15,600 2,220 Climbing Minneapolis Center
09:42AM 41.3828 -96.5519 270° West 315 362 17,900 1,860 Climbing Minneapolis Center
09:43AM 41.3839 -96.6767 271° West 333 383 19,400 1,440 Climbing Minneapolis Center
09:44AM 41.3839 -96.8061 270° West 346 398 20,900 1,440 Climbing Minneapolis Center
09:45AM 41.3850 -96.9414 271° West 359 413 22,400 1,560 Climbing Minneapolis Center
09:46AM 41.3842 -97.0775 270° West 366 421 24,200 1,740 Climbing Minneapolis Center
09:47AM 41.3833 -97.2125 270° West 365 420 26,000 1,680 Climbing Minneapolis Center
09:48AM 41.3828 -97.3431 270° West 357 411 27,700 1,320 Climbing Minneapolis Center
09:49AM 41.3794 -97.4750 268° West 355 409 28,800 1,020 Climbing Minneapolis Center
09:50AM 41.3547 -97.6061 256° West 362 417 29,800 1,080 Climbing Minneapolis Center
09:51AM 41.3267 -97.7617 257° West 368 423 31,000 1,020 Climbing Minneapolis Center
09:52AM 41.3039 -97.8950 257° West 370 426 32,000 900 Climbing Minneapolis Center
09:53AM 41.2806 -98.0283 257° West 370 426 32,900 780 Climbing Minneapolis Center
09:54AM 41.2575 -98.1622 257° West 371 427 33,700 780 Climbing Minneapolis Center
09:55AM 41.2333 -98.2981 257° West 376 433 34,600 900 Climbing Minneapolis Center
09:56AM 41.2094 -98.4317 257° West 373 429 35,600 660 Climbing Minneapolis Center
09:57AM 41.1853 -98.5672 257° West 371 427 36,000 180 Climbing Minneapolis Center
09:58AM 41.1619 -98.7000 257° West 371 427 36,000  Level Minneapolis Center
09:59AM 41.1386 -98.8314 257° West 369 425 36,000  Level Minneapolis Center
10:00AM 41.1133 -98.9606 255° West 365 420 36,000  Level Minneapolis Center
10:01AM 41.0911 -99.0872 257° West 358 412 36,000  Level Minneapolis Center
10:02AM 41.0767 -99.1747 258° West 356 410 36,000  Level Denver Center
10:03AM 41.0558 -99.3019 258° West 355 409 36,000  Level Denver Center
10:04AM 41.0344 -99.4272 257° West 351 404 36,000  Level Denver Center
10:05AM 41.0136 -99.5544 258° West 352 405 36,000  Level Denver Center
10:06AM 40.9917 -99.6811 257° West 353 406 36,000  Level Denver Center
10:07AM 40.9678 -99.8203 257° West 353 406 36,000  Level Denver Center
10:08AM 40.9467 -99.9419 257° West 354 407 36,000  Level Denver Center
10:09AM 40.9222 -100.0836 257° West 354 407 36,000  Level Denver Center
10:10AM 40.9008 -100.2050 257° West 354 407 36,000  Level Denver Center
10:11AM 40.8758 -100.3469 257° West 356 410 36,000  Level Denver Center
10:12AM 40.8542 -100.4697 257° West 358 412 36,000  Level Denver Center
10:13AM 40.8322 -100.5939 257° West 361 415 36,000  Level Denver Center
10:14AM 40.8081 -100.7283 257° West 363 418 36,000  Level Denver Center
10:15AM 40.7806 -100.8725 256° West 366 421 36,000  Level Denver Center
10:16AM 40.7586 -100.9969 257° West 365 420 36,000  Level Denver Center
10:17AM 40.7319 -101.1414 256° West 363 418 36,000  Level Denver Center
10:18AM 40.7094 -101.2658 257° West 364 419 36,000  Level Denver Center
10:19AM 40.6858 -101.3900 256° West 365 420 36,000  Level Denver Center
10:20AM 40.6586 -101.5361 256° West 367 422 36,000  Level Denver Center
10:21AM 40.6350 -101.6600 256° West 367 422 36,000  Level Denver Center
10:22AM 40.6069 -101.8064 256° West 368 423 36,000  Level Denver Center
10:23AM 40.5836 -101.9325 256° West 370 426 36,000  Level Denver Center
10:24AM 40.5586 -102.0594 256° West 373 429 36,000  Level Denver Center
10:25AM 40.5306 -102.2083 256° West 375 432 36,000 -420 Level Denver Center
10:26AM 40.5050 -102.3358 255° West 376 433 35,200 -960 Descending Denver Center
10:27AM 40.4761 -102.4847 256° West 377 434 34,100 -660 Descending Denver Center
10:28AM 40.4506 -102.6119 255° West 376 433 33,900 -900 Descending Denver Center
10:30AM 40.4233 -102.7503 256° West 376 433 32,300 -1,500 Descending Denver Center
10:31AM 40.3967 -102.8831 255° West 378 435 30,800 -1,500 Descending Denver Center
10:32AM 40.3686 -103.0233 255° West 398 458 29,300 -1,500 Descending Denver Center
10:33AM 40.3411 -103.1581 255° West 389 448 27,800 -1,500 Descending Denver Center
10:34AM 40.3150 -103.2889 255° West 376 433 26,300 -1,620 Descending Denver Center
10:35AM 40.2825 -103.4447 255° West 372 428 24,500 -1,620 Descending Denver Center
10:36AM 40.2567 -103.5714 255° West 365 420 23,000 -1,440 Descending Denver Center
10:37AM 40.2308 -103.6964 255° West 359 413 21,600 -1,260 Descending Denver Center
10:38AM 40.2058 -103.8197 255° West 315 362 20,500 -1,140 Descending Denver Center
10:39AM 40.1717 -103.9153 245° Southwest 284 327 19,300 -1,140 Descending Denver Center
10:40AM 40.1275 -104.0100 239° Southwest 286 329 18,200 -960 Descending Denver Center
10:41AM 40.0875 -104.0969 239° Southwest 281 323 17,400 -900 Descending Denver Center
10:42AM 40.0489 -104.1786 238° Southwest 268 308 16,400 -1,020 Descending Denver Center
10:43AM 40.0067 -104.2714 239° Southwest 275 316 15,400 -1,020 Descending Denver Center
10:44AM 39.9667 -104.3569 239° Southwest 278 320 14,400 -900 Descending Denver Center
10:45AM 39.9297 -104.4375 239° Southwest 271 312 13,600 -1,020 Descending Denver Center
10:46AM 39.8853 -104.4981 226° Southwest 250 288 12,400 -1,260 Descending Denver Center
10:47AM 39.8044 -104.5008 182° South 242 278 11,000 -960 Descending Denver Center
10:48AM 39.7436 -104.5019 181° South 221 254 10,500 -540 Descending Denver Center
10:49AM 39.6828 -104.5033 181° South 217 250 10,000 -300 Descending Denver Center
10:50AM 39.6219 -104.5042 181° South 216 249 10,000  Level Denver Center
10:51AM 39.5606 -104.5047 180° South 217 250 10,000 -180 Level Denver Center
10:52AM 39.4997 -104.5056 181° South 217 250 9,700 -540 Descending Denver Center
10:53AM 39.4678 -104.5567 231° Southwest 216 249 9,000 -420 Descending Denver Center
10:54AM 39.4897 -104.6158 296° West 216 249 8,900 -480 Descending Denver Center
10:55AM 39.5597 -104.6428 343° North 220 253 8,100 -480 Descending Denver Center
10:56AM 39.6183 -104.6450 358° North 218 251 8,000 -60 Descending Denver Center
10:57AM 39.6714 -104.6431 North 198 228 8,000 -300 Level Denver Center
10:58AM 39.7250 -104.6428 360° North 194 223 7,500 -780 Descending Denver Center
10:59AM 39.7803 -104.6422 360° North 164 189 6,400 -960 Descending Denver Center
11:00AM 39.8214 -104.6411 North 150 173 5,600 -540 Descending Denver Center
11:02AM 39.8517 -104.6411 360° North 120 138 5,300 -300 Descending Denver Center